Time;durP1;ratioP1;P1;durP2;ratioP2;P2;SDS_P1;SDS_P2;PMS_P1;PMS_P2;Temp;Humidity;BMP_temperature;BMP_pressure;BME280_temperature;BME280_humidity;BME280_pressure;Samples;Min_cycle;Max_cycle;Signal;HPM_P1;HPM_P2
2022/12/18 00:02:07;;;;;;;13.52;9.65;;;15.20;35.60;;;;;;5064964;27;45408;-76
2022/12/18 00:04:38;;;;;;;13.82;9.48;;;15.20;35.70;;;;;;5064432;27;46638;-76
2022/12/18 00:07:06;;;;;;;14.63;9.27;;;15.10;35.70;;;;;;5063667;27;45133;-75
2022/12/18 00:09:33;;;;;;;11.57;8.68;;;15.10;35.80;;;;;;5065081;28;45268;-75
2022/12/18 00:12:00;;;;;;;13.40;9.18;;;15.00;35.80;;;;;;5064655;28;45330;-76
2022/12/18 00:14:27;;;;;;;13.65;8.63;;;15.00;35.90;;;;;;5063877;28;45274;-76
2022/12/18 00:17:00;;;;;;;12.80;8.45;;;15.00;36.00;;;;;;5064581;28;45182;-75
2022/12/18 00:19:27;;;;;;;12.40;8.73;;;14.90;35.90;;;;;;5064176;27;45233;-76
2022/12/18 00:21:54;;;;;;;11.88;8.00;;;14.90;35.90;;;;;;5063503;27;45266;-75
2022/12/18 00:24:22;;;;;;;11.90;8.48;;;15.00;36.00;;;;;;5063612;27;45385;-75
2022/12/18 00:26:49;;;;;;;11.40;7.72;;;15.00;35.90;;;;;;5063445;27;45961;-76
2022/12/18 00:29:17;;;;;;;10.48;7.55;;;15.10;35.80;;;;;;5063844;28;45190;-75
2022/12/18 00:31:44;;;;;;;13.07;8.20;;;15.20;35.80;;;;;;5063916;28;45173;-75
2022/12/18 00:34:11;;;;;;;10.80;7.75;;;15.20;35.70;;;;;;5063159;27;46377;-76
2022/12/18 00:36:38;;;;;;;12.27;7.53;;;15.30;35.60;;;;;;5063515;28;45385;-76
2022/12/18 00:39:05;;;;;;;9.32;7.35;;;15.40;35.50;;;;;;5063588;28;45362;-75
2022/12/18 00:44:18;;;;;;;9.43;7.30;;;15.50;35.40;;;;;;5060653;28;45204;-75
2022/12/18 00:46:45;;;;;;;11.07;7.25;;;15.60;35.90;;;;;;5063345;28;45222;-77
2022/12/18 00:49:12;;;;;;;10.32;6.68;;;15.60;35.30;;;;;;5063566;28;45359;-78
2022/12/18 00:51:39;;;;;;;10.45;6.80;;;15.60;35.20;;;;;;5063505;28;45415;-77
2022/12/18 00:54:06;;;;;;;9.20;6.60;;;15.60;35.20;;;;;;5062606;27;46664;-77
2022/12/18 00:56:36;;;;;;;11.20;7.53;;;15.60;35.20;;;;;;5060530;28;45231;-77
2022/12/18 00:59:02;;;;;;;10.48;6.60;;;15.60;35.20;;;;;;5063368;27;45304;-77
2022/12/18 01:01:29;;;;;;;9.48;6.50;;;15.60;35.20;;;;;;5060588;28;45373;-75
2022/12/18 01:04:00;;;;;;;9.40;6.22;;;15.60;35.20;;;;;;5062946;27;45360;-75
2022/12/18 01:06:26;;;;;;;10.82;7.05;;;15.50;35.10;;;;;;5063392;28;45351;-75
2022/12/18 01:08:53;;;;;;;8.02;5.97;;;15.50;35.20;;;;;;5063163;27;45255;-77
2022/12/18 01:11:21;;;;;;;10.20;6.97;;;15.50;35.20;;;;;;5063282;28;45292;-73
2022/12/18 01:13:49;;;;;;;10.73;7.32;;;15.50;35.30;;;;;;5055232;27;46672;-76
2022/12/18 01:16:16;;;;;;;10.70;6.80;;;15.40;35.30;;;;;;5044922;28;45333;-75
2022/12/18 01:18:43;;;;;;;10.30;6.68;;;15.40;35.30;;;;;;5063218;27;45406;-76
2022/12/18 01:21:11;;;;;;;11.68;6.95;;;15.40;35.40;;;;;;5059388;28;45436;-76
2022/12/18 01:23:38;;;;;;;9.60;6.75;;;15.30;35.40;;;;;;5045715;28;46387;-77
2022/12/18 01:26:06;;;;;;;12.05;7.00;;;15.30;35.50;;;;;;5045501;28;45421;-77
2022/12/18 01:28:33;;;;;;;11.15;6.50;;;15.20;35.50;;;;;;5045976;28;45388;-76
2022/12/18 01:31:14;;;;;;;10.02;6.70;;;15.20;35.50;;;;;;5045929;28;45311;-76
2022/12/18 01:33:41;;;;;;;8.50;6.15;;;15.20;36.20;;;;;;5046097;27;45319;-76
2022/12/18 01:36:09;;;;;;;11.55;6.15;;;15.10;35.50;;;;;;5045581;28;45354;-76
2022/12/18 01:38:35;;;;;;;7.95;5.85;;;15.10;35.60;;;;;;5045726;28;45293;-76
2022/12/18 01:41:03;;;;;;;10.88;6.05;;;15.00;35.60;;;;;;5045858;28;45199;-76
2022/12/18 01:43:45;;;;;;;8.88;6.18;;;15.00;35.70;;;;;;5045437;28;45230;-76
2022/12/18 01:46:14;;;;;;;8.77;5.88;;;14.90;35.70;;;;;;5045417;27;45243;-76
2022/12/18 01:48:41;;;;;;;9.35;5.90;;;14.90;35.80;;;;;;5043071;28;45185;-76
2022/12/18 01:51:08;;;;;;;9.93;6.18;;;14.90;35.80;;;;;;5045822;28;45425;-76
2022/12/18 01:53:35;;;;;;;8.85;6.05;;;14.90;35.80;;;;;;5045376;28;46392;-76
2022/12/18 01:56:02;;;;;;;9.95;6.28;;;14.90;35.80;;;;;;5045430;28;45220;-76
2022/12/18 01:58:31;;;;;;;9.57;6.07;;;14.90;35.70;;;;;;5045613;28;45187;-76
2022/12/18 02:00:58;;;;;;;8.13;6.03;;;15.00;35.60;;;;;;5045623;28;45400;-75
2022/12/18 02:03:26;;;;;;;8.00;5.75;;;15.10;35.50;;;;;;5045311;27;46757;-76
2022/12/18 02:05:56;;;;;;;6.95;5.45;;;15.20;35.50;;;;;;5044472;27;45122;-76
2022/12/18 02:08:24;;;;;;;9.57;5.55;;;15.30;35.40;;;;;;5044778;28;45363;-76
2022/12/18 02:10:55;;;;;;;10.27;5.50;;;15.40;35.30;;;;;;5045553;28;45299;-76
2022/12/18 02:13:23;;;;;;;7.75;5.97;;;15.50;35.20;;;;;;5045086;28;46692;-76
2022/12/18 02:15:55;;;;;;;7.75;5.35;;;15.50;35.10;;;;;;5045286;28;45402;-76
2022/12/18 02:18:23;;;;;;;8.93;5.25;;;15.60;35.10;;;;;;5045306;28;45259;-76
2022/12/18 02:20:55;;;;;;;8.63;5.90;;;15.60;35.00;;;;;;5045493;28;45551;-76
2022/12/18 02:23:30;;;;;;;8.95;5.90;;;15.60;35.00;;;;;;5042500;28;45497;-76
2022/12/18 02:26:12;;;;;;;7.68;5.57;;;15.60;35.00;;;;;;5044891;28;45218;-76
2022/12/18 02:28:43;;;;;;;9.40;5.95;;;15.60;35.00;;;;;;5045265;28;45141;-76
2022/12/18 02:31:12;;;;;;;9.07;5.70;;;15.60;35.00;;;;;;5045018;28;45427;-76
2022/12/18 02:33:39;;;;;;;8.15;5.65;;;15.70;35.60;;;;;;5044903;28;47295;-76
2022/12/18 02:36:06;;;;;;;7.82;5.18;;;15.60;34.90;;;;;;5044834;27;45271;-76
2022/12/18 02:38:33;;;;;;;8.80;5.68;;;15.60;34.90;;;;;;5045045;28;45508;-76
2022/12/18 02:41:00;;;;;;;8.45;5.93;;;15.60;35.00;;;;;;5045071;28;45256;-76
2022/12/18 02:43:28;;;;;;;10.13;5.85;;;15.50;35.00;;;;;;5044654;28;46348;-76
2022/12/18 02:45:56;;;;;;;8.25;5.68;;;15.50;35.00;;;;;;5044636;27;45254;-76
2022/12/18 02:48:24;;;;;;;8.10;5.60;;;15.40;35.00;;;;;;5044924;28;45369;-76
2022/12/18 02:50:53;;;;;;;8.00;5.00;;;15.40;35.00;;;;;;5044968;28;45264;-76
2022/12/18 02:53:24;;;;;;;8.27;5.32;;;15.40;35.10;;;;;;5044734;28;47322;-76
2022/12/18 02:55:55;;;;;;;7.03;5.28;;;15.40;35.10;;;;;;5044507;28;45333;-76
2022/12/18 02:58:31;;;;;;;7.47;5.35;;;15.30;35.00;;;;;;5044748;28;45306;-76
2022/12/18 03:01:00;;;;;;;8.23;4.97;;;15.30;35.10;;;;;;5044876;28;45461;-76
2022/12/18 03:03:30;;;;;;;8.25;5.88;;;15.20;35.20;;;;;;5044736;28;46782;-76
2022/12/18 03:05:58;;;;;;;6.22;4.97;;;15.20;35.30;;;;;;5044710;28;45205;-76
2022/12/18 03:08:26;;;;;;;7.03;4.80;;;15.10;35.30;;;;;;5044676;28;45423;-76
2022/12/18 03:10:54;;;;;;;7.75;5.22;;;15.10;35.30;;;;;;5044259;28;45324;-76
2022/12/18 03:13:24;;;;;;;8.15;5.28;;;15.00;35.40;;;;;;5044263;28;46570;-76
2022/12/18 03:15:52;;;;;;;8.85;5.57;;;15.00;35.40;;;;;;5044262;28;45252;-76
2022/12/18 03:18:21;;;;;;;8.63;5.15;;;14.90;35.40;;;;;;5044974;28;45324;-76
2022/12/18 03:20:48;;;;;;;7.97;4.93;;;14.90;35.50;;;;;;5044989;28;45246;-76
2022/12/18 03:23:16;;;;;;;8.63;5.90;;;14.90;35.60;;;;;;5044217;28;45485;-76
2022/12/18 03:25:44;;;;;;;7.65;4.70;;;14.80;35.60;;;;;;5044006;27;45484;-76
2022/12/18 03:28:13;;;;;;;7.40;5.00;;;14.80;35.60;;;;;;5044515;28;45202;-76
2022/12/18 03:30:40;;;;;;;7.38;5.03;;;14.90;35.60;;;;;;5044292;28;45286;-76
2022/12/18 03:33:10;;;;;;;7.93;5.03;;;14.90;35.60;;;;;;5044166;28;45635;-76
2022/12/18 03:35:38;;;;;;;5.88;4.82;;;14.90;35.40;;;;;;5044203;28;45225;-76
2022/12/18 03:38:05;;;;;;;7.05;4.45;;;15.00;35.30;;;;;;5044418;28;45192;-76
2022/12/18 03:40:35;;;;;;;6.15;4.43;;;15.10;35.90;;;;;;5044544;27;45438;-76
2022/12/18 03:43:04;;;;;;;6.10;4.60;;;15.20;35.20;;;;;;5043019;28;45535;-76
2022/12/18 03:45:34;;;;;;;8.27;4.88;;;15.30;35.20;;;;;;5043995;28;45240;-76
2022/12/18 03:48:02;;;;;;;7.45;5.00;;;15.30;35.10;;;;;;5044324;28;45178;-76
2022/12/18 03:50:35;;;;;;;8.93;5.32;;;15.30;35.70;;;;;;5044250;28;45504;-76
2022/12/18 03:53:07;;;;;;;9.70;5.05;;;15.40;35.00;;;;;;5043725;28;45274;-76
2022/12/18 03:55:34;;;;;;;5.93;4.43;;;15.40;35.00;;;;;;5043812;28;45159;-76
2022/12/18 03:58:01;;;;;;;7.82;5.07;;;15.40;34.90;;;;;;5044105;28;45332;-76
2022/12/18 04:00:28;;;;;;;8.50;5.28;;;15.40;34.90;;;;;;5044088;28;45185;-75
2022/12/18 04:02:56;;;;;;;8.55;4.97;;;15.40;34.90;;;;;;5042959;28;45306;-76
2022/12/18 04:05:22;;;;;;;8.27;5.30;;;15.50;34.90;;;;;;5043427;28;45308;-76
2022/12/18 04:07:51;;;;;;;7.43;5.28;;;15.40;34.90;;;;;;5041278;28;45296;-76
2022/12/18 04:10:18;;;;;;;7.60;5.00;;;15.40;34.90;;;;;;5044236;28;45441;-76
2022/12/18 04:12:45;;;;;;;8.25;5.43;;;15.40;34.90;;;;;;5043541;28;45472;-76
2022/12/18 04:15:12;;;;;;;7.90;5.10;;;15.30;34.90;;;;;;5043640;27;45293;-76
2022/12/18 04:17:39;;;;;;;9.07;5.13;;;15.30;34.90;;;;;;5043747;28;45214;-76
2022/12/18 04:20:07;;;;;;;7.43;4.72;;;15.30;34.90;;;;;;5044264;28;45539;-76
2022/12/18 04:22:35;;;;;;;7.28;5.20;;;15.20;35.00;;;;;;5043760;28;45421;-76
2022/12/18 04:25:03;;;;;;;7.28;5.43;;;15.20;35.00;;;;;;5043623;28;45321;-76
2022/12/18 04:27:30;;;;;;;6.82;4.70;;;15.20;35.10;;;;;;5043359;27;45269;-76
2022/12/18 04:29:57;;;;;;;7.68;5.05;;;15.10;35.10;;;;;;5043808;28;45382;-76
2022/12/18 04:32:24;;;;;;;8.45;5.45;;;15.10;35.10;;;;;;5043883;28;45469;-76
2022/12/18 04:34:51;;;;;;;7.95;5.63;;;15.10;35.10;;;;;;5043335;28;45384;-76
2022/12/18 04:37:18;;;;;;;10.43;5.68;;;15.00;35.10;;;;;;5043260;28;45377;-76
2022/12/18 04:39:44;;;;;;;6.97;4.90;;;15.00;35.30;;;;;;5043434;28;45401;-76
2022/12/18 04:42:13;;;;;;;8.20;4.93;;;14.90;35.30;;;;;;5043196;28;46318;-76
2022/12/18 04:44:40;;;;;;;7.85;5.30;;;14.90;35.90;;;;;;5043454;28;45344;-75
2022/12/18 04:47:07;;;;;;;8.75;5.70;;;14.80;35.30;;;;;;5042929;28;45242;-76
2022/12/18 04:49:34;;;;;;;7.30;5.28;;;14.80;35.50;;;;;;5043485;28;45233;-76
2022/12/18 04:52:00;;;;;;;8.43;5.22;;;14.70;35.50;;;;;;5043087;28;46366;-75
2022/12/18 04:54:27;;;;;;;8.38;4.90;;;14.80;35.40;;;;;;5045453;28;45197;-75
2022/12/18 04:56:54;;;;;;;7.25;5.32;;;14.80;35.40;;;;;;5046481;28;45459;-75
2022/12/18 04:59:22;;;;;;;8.18;4.95;;;14.90;35.40;;;;;;5046526;28;45392;-75
2022/12/18 05:01:49;;;;;;;6.82;4.53;;;14.90;35.30;;;;;;5046005;28;45479;-75
2022/12/18 05:04:16;;;;;;;5.82;4.70;;;15.00;35.30;;;;;;5046359;27;45224;-75
2022/12/18 05:06:43;;;;;;;7.55;4.65;;;15.10;35.30;;;;;;5046191;27;45258;-75
2022/12/18 05:09:10;;;;;;;8.13;5.22;;;15.20;35.10;;;;;;5046290;28;45374;-75
2022/12/18 05:11:37;;;;;;;8.45;4.78;;;15.20;35.00;;;;;;5046168;28;45354;-75
2022/12/18 05:14:04;;;;;;;8.45;5.75;;;15.30;34.80;;;;;;5045820;28;45228;-75
2022/12/18 05:16:32;;;;;;;8.02;5.15;;;15.30;34.80;;;;;;5046369;28;45191;-75
2022/12/18 05:18:59;;;;;;;7.53;4.97;;;15.40;34.80;;;;;;5046251;28;45255;-75
2022/12/18 05:21:26;;;;;;;7.13;5.18;;;15.40;34.80;;;;;;5045791;28;46401;-75
2022/12/18 05:23:52;;;;;;;7.72;4.88;;;15.40;34.60;;;;;;5045229;27;45395;-75
2022/12/18 05:26:19;;;;;;;6.07;4.75;;;15.40;34.60;;;;;;5045724;28;45326;-74
2022/12/18 05:28:46;;;;;;;7.13;4.97;;;15.40;34.60;;;;;;5045477;28;45179;-74
2022/12/18 05:31:13;;;;;;;7.20;5.22;;;15.40;34.60;;;;;;5045121;28;45481;-74
2022/12/18 05:33:41;;;;;;;8.48;5.75;;;15.40;34.60;;;;;;5045681;28;45474;-75
2022/12/18 05:36:09;;;;;;;7.78;5.35;;;15.30;34.60;;;;;;5045909;28;45293;-75
2022/12/18 05:38:37;;;;;;;8.82;4.95;;;15.30;34.60;;;;;;5045899;28;45238;-75
2022/12/18 05:41:04;;;;;;;7.15;4.97;;;15.30;34.70;;;;;;5045644;28;46442;-75
2022/12/18 05:43:32;;;;;;;6.60;4.85;;;15.30;34.70;;;;;;5045382;27;45327;-75
2022/12/18 05:45:59;;;;;;;6.78;4.60;;;15.20;34.70;;;;;;5045710;28;45348;-75
2022/12/18 05:48:26;;;;;;;6.45;5.05;;;15.20;34.70;;;;;;5045845;28;45198;-75
2022/12/18 05:50:54;;;;;;;8.95;5.32;;;15.20;34.70;;;;;;5045304;27;46998;-75
2022/12/18 05:53:21;;;;;;;7.63;4.82;;;15.10;34.80;;;;;;5045415;28;45398;-75
2022/12/18 05:55:48;;;;;;;7.53;4.63;;;15.10;34.80;;;;;;5045498;28;45431;-75
2022/12/18 05:58:15;;;;;;;7.75;5.15;;;15.00;34.80;;;;;;5045784;28;45229;-74
2022/12/18 06:00:46;;;;;;;7.20;4.85;;;15.00;34.90;;;;;;5045424;28;46333;-75
2022/12/18 06:03:13;;;;;;;7.38;5.15;;;14.90;34.80;;;;;;5050668;28;45352;-74
2022/12/18 06:05:41;;;;;;;6.75;4.78;;;14.90;34.90;;;;;;5047044;27;45196;-74
2022/12/18 06:08:10;;;;;;;7.85;4.90;;;14.90;34.90;;;;;;5048441;28;45133;-75
2022/12/18 06:10:37;;;;;;;7.88;4.70;;;14.80;35.50;;;;;;5049307;27;45625;-74
2022/12/18 06:13:04;;;;;;;7.10;4.95;;;14.80;35.00;;;;;;5050159;27;45405;-75
2022/12/18 06:15:31;;;;;;;7.50;5.22;;;14.70;35.10;;;;;;5046587;28;45157;-75
2022/12/18 06:17:58;;;;;;;6.70;4.80;;;14.70;35.10;;;;;;5045462;27;45187;-75
2022/12/18 06:20:25;;;;;;;9.65;5.00;;;14.70;35.10;;;;;;5045251;28;45673;-75
2022/12/18 06:22:52;;;;;;;6.40;4.53;;;14.70;35.00;;;;;;5045212;28;45336;-76
2022/12/18 06:25:20;;;;;;;6.25;4.90;;;14.80;35.00;;;;;;5045190;28;45232;-75
2022/12/18 06:27:48;;;;;;;7.28;4.55;;;14.80;34.90;;;;;;5045572;27;45171;-75
2022/12/18 06:30:15;;;;;;;7.65;4.43;;;14.90;35.50;;;;;;5045206;28;46815;-75
2022/12/18 06:32:42;;;;;;;6.18;4.72;;;14.90;34.80;;;;;;5045158;28;45382;-75
2022/12/18 06:35:09;;;;;;;8.40;4.78;;;15.10;34.80;;;;;;5045453;28;45364;-75
2022/12/18 06:37:36;;;;;;;6.82;4.30;;;15.10;34.70;;;;;;5045624;28;45449;-75
2022/12/18 06:40:03;;;;;;;7.85;4.97;;;15.20;34.60;;;;;;5045060;28;45266;-75
2022/12/18 06:42:31;;;;;;;6.43;4.45;;;15.20;34.50;;;;;;5045079;28;45461;-75
2022/12/18 06:44:58;;;;;;;7.22;5.03;;;15.20;34.50;;;;;;5045116;28;45399;-75
2022/12/18 06:47:25;;;;;;;5.43;4.28;;;15.30;34.50;;;;;;5045360;28;45386;-75
2022/12/18 06:49:52;;;;;;;5.65;4.38;;;15.30;34.50;;;;;;5042330;28;45239;-76
2022/12/18 06:52:19;;;;;;;8.05;4.78;;;15.30;34.40;;;;;;5045074;27;45303;-76
2022/12/18 06:54:46;;;;;;;8.25;4.88;;;15.30;35.00;;;;;;5045421;27;45336;-75
2022/12/18 06:57:13;;;;;;;8.38;5.10;;;15.20;34.40;;;;;;5044413;28;45486;-74
2022/12/18 06:59:44;;;;;;;7.10;4.95;;;15.20;35.00;;;;;;5044309;27;45317;-75
2022/12/18 07:02:12;;;;;;;5.97;5.05;;;15.20;34.40;;;;;;5045094;27;45389;-74
2022/12/18 07:04:39;;;;;;;7.40;4.88;;;15.20;34.40;;;;;;5045377;28;45332;-75
2022/12/18 07:07:06;;;;;;;8.52;4.47;;;15.10;34.40;;;;;;5045038;27;45196;-74
2022/12/18 07:09:33;;;;;;;6.75;4.35;;;15.10;34.50;;;;;;5045356;28;45303;-75
2022/12/18 07:12:00;;;;;;;7.70;5.28;;;15.10;34.50;;;;;;5046285;27;45289;-75
2022/12/18 07:14:27;;;;;;;9.82;5.78;;;15.00;34.50;;;;;;5046050;28;45386;-74
2022/12/18 07:16:55;;;;;;;7.25;5.05;;;15.00;34.50;;;;;;5044803;28;45315;-75
2022/12/18 07:19:22;;;;;;;6.57;4.43;;;15.00;34.60;;;;;;5042471;28;46560;-75
2022/12/18 07:21:49;;;;;;;7.07;4.78;;;14.90;34.60;;;;;;5044577;27;45275;-74
2022/12/18 07:24:15;;;;;;;5.80;4.60;;;14.90;34.60;;;;;;5044337;27;45452;-74
2022/12/18 07:26:42;;;;;;;8.07;4.60;;;14.90;34.70;;;;;;5046438;28;45331;-74
2022/12/18 07:29:09;;;;;;;7.93;4.83;;;14.80;34.70;;;;;;5044377;28;47611;-75
2022/12/18 07:31:36;;;;;;;6.82;4.60;;;14.80;34.80;;;;;;5044767;28;45290;-74
2022/12/18 07:34:04;;;;;;;7.70;4.70;;;14.70;34.90;;;;;;5045772;28;45137;-74
2022/12/18 07:36:31;;;;;;;7.20;4.68;;;14.70;34.90;;;;;;5045256;28;45394;-74
2022/12/18 07:38:58;;;;;;;8.68;4.68;;;14.60;34.90;;;;;;5047012;28;46596;-74
2022/12/18 07:41:25;;;;;;;9.07;4.82;;;14.60;34.90;;;;;;5047077;28;45294;-74
2022/12/18 07:43:52;;;;;;;7.85;4.82;;;14.60;34.90;;;;;;5046116;28;45235;-75
2022/12/18 07:46:19;;;;;;;6.85;4.90;;;14.70;34.90;;;;;;5046739;28;45177;-75
2022/12/18 07:48:46;;;;;;;5.82;4.22;;;14.70;35.40;;;;;;5046097;28;46359;-75
2022/12/18 07:51:14;;;;;;;7.78;4.28;;;14.80;34.80;;;;;;5044868;28;45307;-75
2022/12/18 07:53:41;;;;;;;7.33;4.70;;;14.80;34.70;;;;;;5044547;28;45213;-75
2022/12/18 07:56:09;;;;;;;6.10;4.18;;;14.90;34.70;;;;;;5044552;28;45353;-75
2022/12/18 07:58:36;;;;;;;7.47;4.88;;;15.00;34.60;;;;;;5044380;27;46723;-74
2022/12/18 08:01:06;;;;;;;6.95;4.38;;;15.10;34.60;;;;;;5044222;28;45344;-75
2022/12/18 08:03:33;;;;;;;6.57;4.13;;;15.10;34.50;;;;;;5044337;28;45161;-75
2022/12/18 08:06:01;;;;;;;7.72;5.30;;;15.10;34.40;;;;;;5044254;28;45397;-75
2022/12/18 08:08:29;;;;;;;6.32;4.50;;;15.20;34.40;;;;;;5043966;28;45467;-75
2022/12/18 08:10:56;;;;;;;7.85;4.70;;;15.20;34.30;;;;;;5043904;28;45178;-75
2022/12/18 08:13:23;;;;;;;6.95;4.65;;;15.20;34.30;;;;;;5044230;28;45237;-75
2022/12/18 08:15:57;;;;;;;8.70;5.45;;;15.20;34.30;;;;;;5044342;28;45197;-75
2022/12/18 08:18:23;;;;;;;6.72;4.57;;;15.20;34.30;;;;;;5043547;27;46385;-75
2022/12/18 08:20:50;;;;;;;6.55;4.47;;;15.20;34.30;;;;;;5043868;28;45208;-74
2022/12/18 08:23:17;;;;;;;7.13;5.07;;;15.10;34.30;;;;;;5043902;28;45383;-74
2022/12/18 08:25:45;;;;;;;6.65;4.75;;;15.10;34.30;;;;;;5043591;27;45531;-75
2022/12/18 08:28:12;;;;;;;7.50;4.93;;;15.10;34.30;;;;;;5042546;28;45178;-74
2022/12/18 08:30:39;;;;;;;6.30;4.53;;;15.00;34.20;;;;;;5043270;28;45174;-74
2022/12/18 08:33:06;;;;;;;8.75;5.20;;;15.00;34.30;;;;;;5043908;28;45346;-75
2022/12/18 08:35:36;;;;;;;9.00;5.63;;;15.00;34.30;;;;;;5043774;28;45396;-75
2022/12/18 08:38:03;;;;;;;5.15;4.40;;;14.90;34.30;;;;;;5043495;28;45480;-75
2022/12/18 08:40:29;;;;;;;6.30;4.38;;;14.90;34.40;;;;;;5043493;28;45283;-75
2022/12/18 08:45:51;;;;;;;7.57;4.78;;;14.90;34.40;;;;;;5079383;27;45504;-75
2022/12/18 08:48:17;;;;;;;6.88;5.03;;;14.80;34.40;;;;;;5043344;28;45492;-75
2022/12/18 08:50:44;;;;;;;6.93;4.88;;;14.80;34.40;;;;;;5042988;28;45397;-75
2022/12/18 08:53:11;;;;;;;7.93;5.38;;;14.70;34.50;;;;;;5041031;28;45305;-75
2022/12/18 08:55:41;;;;;;;7.10;4.88;;;14.70;34.50;;;;;;5043174;28;45187;-74
2022/12/18 08:58:13;;;;;;;7.38;4.97;;;14.70;34.40;;;;;;5043118;27;45859;-75
2022/12/18 09:00:40;;;;;;;7.47;4.82;;;14.70;34.40;;;;;;5043152;28;45253;-75
2022/12/18 09:03:12;;;;;;;6.32;4.85;;;14.80;34.40;;;;;;5043218;28;45320;-75
2022/12/18 09:05:38;;;;;;;8.68;5.13;;;14.80;34.30;;;;;;5043451;28;45171;-75
2022/12/18 09:08:09;;;;;;;7.57;5.00;;;14.90;34.30;;;;;;5043198;28;45276;-75
2022/12/18 09:10:42;;;;;;;7.72;4.80;;;15.00;34.20;;;;;;5043412;28;45266;-75
2022/12/18 09:13:10;;;;;;;6.65;4.70;;;15.10;34.10;;;;;;5043280;28;45311;-75
2022/12/18 09:15:41;;;;;;;8.20;4.95;;;15.20;34.00;;;;;;5042821;28;45190;-75
2022/12/18 09:18:08;;;;;;;7.75;4.72;;;15.20;34.00;;;;;;5043074;28;46368;-75
2022/12/18 09:20:35;;;;;;;8.68;4.70;;;15.30;33.90;;;;;;5042706;28;45338;-75
2022/12/18 09:23:05;;;;;;;7.18;4.43;;;15.40;33.80;;;;;;5042992;28;45239;-76
2022/12/18 09:25:32;;;;;;;8.95;5.07;;;15.40;33.70;;;;;;5043220;27;45465;-75
2022/12/18 09:27:59;;;;;;;8.00;5.47;;;15.40;33.80;;;;;;5041807;28;45718;-76
2022/12/18 09:30:28;;;;;;;6.53;4.63;;;15.40;33.70;;;;;;5042698;28;45418;-77
2022/12/18 09:32:55;;;;;;;7.00;5.00;;;15.50;33.70;;;;;;5042917;28;45194;-74
2022/12/18 09:35:21;;;;;;;7.30;4.75;;;15.50;33.60;;;;;;5042877;27;45541;-77
2022/12/18 09:37:48;;;;;;;7.22;4.97;;;15.50;33.70;;;;;;5042934;28;45453;-75
2022/12/18 09:40:16;;;;;;;7.68;5.35;;;15.50;33.60;;;;;;5043472;28;45286;-75
2022/12/18 09:42:43;;;;;;;8.55;5.05;;;15.50;33.60;;;;;;5046338;28;45141;-76
2022/12/18 09:45:12;;;;;;;5.70;4.50;;;15.50;33.70;;;;;;5045690;27;45201;-75
2022/12/18 09:47:40;;;;;;;7.78;5.55;;;15.40;33.70;;;;;;5045423;27;45455;-74
2022/12/18 09:50:15;;;;;;;7.43;5.22;;;15.40;33.70;;;;;;5082180;27;45387;-76
2022/12/18 09:52:44;;;;;;;7.10;5.22;;;15.40;33.70;;;;;;5098298;27;45314;-75
2022/12/18 09:55:15;;;;;;;7.53;5.28;;;15.40;33.70;;;;;;5046231;28;45571;-76
2022/12/18 09:57:46;;;;;;;5.75;4.85;;;15.40;33.80;;;;;;5084973;28;47616;-75
2022/12/18 10:00:18;;;;;;;7.50;5.45;;;15.30;33.80;;;;;;5086095;27;46002;-77
2022/12/18 10:02:47;;;;;;;8.80;5.32;;;15.30;33.80;;;;;;5045881;27;45117;-76
2022/12/18 10:05:15;;;;;;;7.97;5.57;;;15.30;33.90;;;;;;5045797;28;45362;-74
2022/12/18 10:07:53;;;;;;;7.43;5.57;;;15.30;33.90;;;;;;5045386;27;45319;-75
2022/12/18 10:10:32;;;;;;;7.70;5.30;;;15.30;33.90;;;;;;5045420;28;45240;-75
2022/12/18 10:13:04;;;;;;;7.85;5.43;;;15.20;34.50;;;;;;5045517;28;45317;-77
2022/12/18 10:15:33;;;;;;;7.10;5.05;;;15.20;33.90;;;;;;5045610;28;45117;-77
2022/12/18 10:18:12;;;;;;;8.23;5.82;;;15.20;33.90;;;;;;5045415;28;45372;-76
2022/12/18 10:20:41;;;;;;;6.57;5.18;;;15.20;33.90;;;;;;5045641;27;45172;-76
2022/12/18 10:23:12;;;;;;;8.70;5.40;;;15.10;33.90;;;;;;5062013;28;45370;-77
2022/12/18 10:25:44;;;;;;;7.25;5.10;;;15.20;34.00;;;;;;5065603;28;45181;-76
2022/12/18 10:28:13;;;;;;;6.82;5.07;;;15.10;34.00;;;;;;5065337;28;45293;-77
2022/12/18 10:30:40;;;;;;;9.52;5.90;;;15.20;34.00;;;;;;5065127;28;45244;-76
2022/12/18 10:33:11;;;;;;;7.80;5.20;;;15.20;34.00;;;;;;5073036;27;45439;-75
2022/12/18 10:35:38;;;;;;;8.70;5.57;;;15.20;34.00;;;;;;5085394;27;45191;-77
2022/12/18 10:38:21;;;;;;;7.25;5.20;;;15.30;33.90;;;;;;5085700;27;45402;-77
2022/12/18 10:40:58;;;;;;;8.10;5.35;;;15.40;33.80;;;;;;5081054;27;45285;-77
2022/12/18 10:43:27;;;;;;;8.57;5.30;;;15.50;33.70;;;;;;5064517;27;45194;-76
2022/12/18 10:46:06;;;;;;;6.22;4.43;;;15.60;33.50;;;;;;5068978;27;45365;-76
2022/12/18 10:48:35;;;;;;;8.73;5.30;;;15.80;33.50;;;;;;5068297;27;47600;-77
2022/12/18 10:51:02;;;;;;;8.13;5.63;;;15.90;33.30;;;;;;5064890;28;45221;-77
2022/12/18 10:53:29;;;;;;;7.90;5.15;;;16.00;33.20;;;;;;5065368;28;45308;-77
2022/12/18 10:55:58;;;;;;;6.22;4.57;;;16.10;33.10;;;;;;5066280;27;45497;-77
2022/12/18 10:58:27;;;;;;;7.35;5.20;;;16.10;33.00;;;;;;5051533;28;45403;-77
2022/12/18 11:01:09;;;;;;;9.77;5.93;;;16.20;33.60;;;;;;5062325;28;45328;-77
2022/12/18 11:03:38;;;;;;;7.05;5.45;;;16.20;33.00;;;;;;5064908;27;45258;-77
2022/12/18 11:06:08;;;;;;;8.40;5.78;;;16.20;33.50;;;;;;5065753;28;45373;-76
2022/12/18 11:08:34;;;;;;;7.68;5.40;;;16.20;32.90;;;;;;5065076;27;47100;-75
2022/12/18 11:11:01;;;;;;;9.10;5.32;;;16.30;33.00;;;;;;5065169;28;45267;-76
2022/12/18 11:13:30;;;;;;;7.47;5.72;;;16.20;32.90;;;;;;5071716;27;45483;-75
2022/12/18 11:15:56;;;;;;;8.88;5.60;;;16.20;33.00;;;;;;5103445;27;45416;-76
2022/12/18 11:18:27;;;;;;;7.15;5.32;;;16.20;33.10;;;;;;5170953;27;45742;-75
2022/12/18 11:20:57;;;;;;;8.35;5.82;;;16.20;33.20;;;;;;5171192;27;45321;-75
2022/12/18 11:23:24;;;;;;;7.72;5.43;;;16.10;33.20;;;;;;5171190;27;45205;-75
2022/12/18 11:25:57;;;;;;;6.75;5.10;;;16.10;33.20;;;;;;5171075;27;45466;-75
2022/12/18 11:28:36;;;;;;;6.68;5.13;;;16.10;33.30;;;;;;5171241;27;45499;-75
2022/12/18 11:31:24;;;;;;;6.82;5.47;;;16.00;33.20;;;;;;5170987;27;45209;-75
2022/12/18 11:33:58;;;;;;;7.05;4.88;;;16.00;33.40;;;;;;5083809;27;45381;-75
2022/12/18 11:36:26;;;;;;;8.63;5.57;;;16.00;33.50;;;;;;5064380;27;45359;-75
2022/12/18 11:38:54;;;;;;;6.55;5.30;;;15.90;33.50;;;;;;5064579;28;45413;-75
2022/12/18 11:42:08;;;;;;;6.68;5.30;;;15.90;33.60;;;;;;5064283;28;45170;-75
2022/12/18 11:44:12;;;;;;;7.03;5.20;;;15.80;33.70;;;;;;5069735;27;45476;-74
2022/12/18 11:46:40;;;;;;;7.07;4.97;;;15.80;33.70;;;;;;5052708;27;45297;-75
2022/12/18 11:49:11;;;;;;;8.02;5.38;;;15.80;33.70;;;;;;5080895;27;45401;-74
2022/12/18 11:51:45;;;;;;;6.80;5.38;;;15.80;33.70;;;;;;5064268;27;45353;-75
2022/12/18 11:54:13;;;;;;;6.88;5.28;;;15.80;33.70;;;;;;5064705;28;45315;-75
2022/12/18 11:56:42;;;;;;;8.25;5.45;;;15.70;33.70;;;;;;5064181;28;45125;-75
2022/12/18 11:59:13;;;;;;;8.15;5.80;;;15.70;33.70;;;;;;5063981;27;46724;-75
2022/12/18 12:01:46;;;;;;;8.25;5.53;;;15.70;33.90;;;;;;5064005;27;45273;-75
2022/12/18 12:04:41;;;;;;;8.02;5.55;;;15.60;33.90;;;;;;5061113;28;45283;-74
2022/12/18 12:07:16;;;;;;;9.07;5.30;;;15.50;34.00;;;;;;5064580;28;45380;-74
2022/12/18 12:09:47;;;;;;;9.63;5.78;;;15.50;34.10;;;;;;5064754;28;45516;-74
2022/12/18 12:12:22;;;;;;;7.70;4.97;;;15.40;34.20;;;;;;5063938;28;45275;-74
2022/12/18 12:14:53;;;;;;;5.97;5.00;;;15.40;34.30;;;;;;5064114;27;45443;-74
2022/12/18 12:17:24;;;;;;;7.13;5.03;;;15.40;34.40;;;;;;5063981;28;45353;-74
2022/12/18 12:19:55;;;;;;;8.10;4.97;;;15.40;34.40;;;;;;5063767;27;46828;-74
2022/12/18 12:22:25;;;;;;;6.95;4.72;;;15.40;34.30;;;;;;5063882;28;45212;-73
2022/12/18 12:24:59;;;;;;;6.95;4.95;;;15.50;34.30;;;;;;5063411;27;45421;-74
2022/12/18 12:27:29;;;;;;;7.53;5.53;;;15.60;34.30;;;;;;5062994;27;45405;-74
2022/12/18 12:30:01;;;;;;;7.43;4.90;;;15.70;34.30;;;;;;5063660;27;46774;-74
2022/12/18 12:32:47;;;;;;;6.57;4.82;;;15.80;34.20;;;;;;5064211;27;45309;-74
2022/12/18 12:35:23;;;;;;;6.47;4.90;;;15.90;34.10;;;;;;5064551;27;45265;-73
2022/12/18 12:37:56;;;;;;;7.25;5.28;;;15.90;34.00;;;;;;5064863;27;45492;-73
2022/12/18 12:40:25;;;;;;;5.90;4.03;;;16.00;34.00;;;;;;5062774;28;46647;-74
2022/12/18 12:45:38;;;;;;;6.55;4.63;;;16.00;33.90;;;;;;5060331;28;45285;-75
2022/12/18 12:48:06;;;;;;;7.18;5.03;;;16.00;33.90;;;;;;5063712;28;45309;-74
2022/12/18 12:50:35;;;;;;;5.82;4.82;;;16.00;33.90;;;;;;5063174;27;46958;-74
2022/12/18 12:53:10;;;;;;;7.45;4.65;;;16.00;33.90;;;;;;5063435;27;45264;-75
2022/12/18 12:55:37;;;;;;;7.03;4.80;;;16.00;34.00;;;;;;5063434;27;45216;-75
2022/12/18 12:58:07;;;;;;;7.75;4.97;;;16.00;34.00;;;;;;5060853;28;45192;-74
2022/12/18 13:00:37;;;;;;;5.53;4.50;;;16.00;34.10;;;;;;5063015;27;46679;-74
2022/12/18 13:03:07;;;;;;;6.80;4.90;;;16.00;34.10;;;;;;5063300;27;45170;-75